Time;durP1;ratioP1;P1;durP2;ratioP2;P2;SDS_P1;SDS_P2;PMS_P1;PMS_P2;Temp;Humidity;BMP_temperature;BMP_pressure;BME280_temperature;BME280_humidity;BME280_pressure;Samples;Min_cycle;Max_cycle;Signal;HPM_P1;HPM_P2
2022/03/24 00:02:24;;;;;;;;;46.75;38.75;;;;;15.44;30.60;102272.03;5017606;28;45456;-74
2022/03/24 00:04:50;;;;;;;;;49.25;36.75;;;;;14.93;30.61;102189.69;5017166;28;45305;-74
2022/03/24 00:07:15;;;;;;;;;50.00;38.00;;;;;15.10;30.58;102235.97;5024069;28;45225;-74
2022/03/24 00:09:41;;;;;;;;;35.25;30.75;;;;;15.34;30.93;102274.38;5016981;28;45390;-73
2022/03/24 00:12:08;;;;;;;;;42.75;35.25;;;;;15.10;31.02;102235.06;5021005;28;45406;-75
2022/03/24 00:14:37;;;;;;;;;41.00;32.75;;;;;15.17;30.83;102261.28;5043366;28;45453;-75
2022/03/24 00:17:02;;;;;;;;;46.75;37.50;;;;;13.86;30.92;102025.75;5028776;28;45527;-73
2022/03/24 00:19:28;;;;;;;;;45.50;36.00;;;;;14.22;30.71;102091.41;5021503;28;45304;-76
2022/03/24 00:21:53;;;;;;;;;48.25;36.00;;;;;15.13;30.59;102253.06;5021582;28;45253;-75
2022/03/24 00:24:19;;;;;;;;;45.00;36.00;;;;;14.73;30.55;102206.94;5018669;28;45696;-75
2022/03/24 00:26:45;;;;;;;;;44.75;34.50;;;;;15.30;30.31;102285.06;5019695;28;45305;-75
2022/03/24 00:29:10;;;;;;;;;45.50;35.50;;;;;14.84;30.51;102201.94;5035684;28;45126;-75
2022/03/24 00:31:36;;;;;;;;;46.25;35.50;;;;;14.67;30.08;102180.78;5027908;28;45368;-76
2022/03/24 00:34:01;;;;;;;;;47.00;36.00;;;;;15.29;30.12;102277.84;5020392;28;46449;-76
2022/03/24 00:36:27;;;;;;;;;43.00;35.25;;;;;15.10;30.12;102241.34;5020941;28;45225;-75
2022/03/24 00:38:55;;;;;;;;;45.75;33.25;;;;;15.05;29.94;102240.28;5023793;28;45534;-73
2022/03/24 00:41:21;;;;;;;;;45.50;35.50;;;;;15.07;29.76;102243.94;5015015;28;45523;-74
2022/03/24 00:43:49;;;;;;;;;51.25;39.75;;;;;15.25;29.73;102275.00;5032421;28;45654;-75
2022/03/24 00:46:23;;;;;;;;;50.00;38.00;;;;;15.16;30.05;102270.22;5018911;28;45413;-73
2022/03/24 00:48:50;;;;;;;;;47.00;36.25;;;;;14.76;29.73;102220.50;5027639;28;45466;-73
2022/03/24 00:51:15;;;;;;;;;48.00;39.50;;;;;14.88;30.16;102260.34;5029621;28;45390;-75
2022/03/24 00:53:43;;;;;;;;;50.75;42.25;;;;;14.88;30.07;102253.22;5035708;28;46313;-75
2022/03/24 00:56:10;;;;;;;;;49.75;39.75;;;;;14.63;30.33;102215.59;5035641;28;45360;-74
2022/03/24 00:58:35;;;;;;;;;42.75;34.00;;;;;14.97;30.14;102283.97;5033724;28;45562;-74
2022/03/24 01:01:04;;;;;;;;;44.00;35.50;;;;;14.93;30.07;102272.16;5035202;28;45400;-75
2022/03/24 01:03:29;;;;;;;;;46.00;35.50;;;;;13.34;30.65;101998.00;5013124;28;48244;-74
2022/03/24 01:05:55;;;;;;;;;45.75;35.75;;;;;14.78;29.83;102253.75;5027272;28;45502;-74
2022/03/24 01:08:22;;;;;;;;;48.50;37.75;;;;;14.35;30.33;102179.66;5035456;28;45324;-75
2022/03/24 01:10:48;;;;;;;;;44.75;35.50;;;;;14.81;30.28;102263.72;5035657;28;45509;-73
2022/03/24 01:13:15;;;;;;;;;47.00;38.75;;;;;14.66;30.24;102240.81;5033486;28;45693;-76
2022/03/24 01:15:44;;;;;;;;;48.25;39.50;;;;;14.67;30.87;102247.13;5026166;28;45411;-73
2022/03/24 01:18:10;;;;;;;;;44.75;35.50;;;;;14.05;30.74;102156.25;5035472;28;45297;-75
2022/03/24 01:20:36;;;;;;;;;46.75;37.75;;;;;13.63;30.95;102082.28;5017173;28;45433;-74
2022/03/24 01:23:01;;;;;;;;;46.00;36.75;;;;;14.62;30.63;102262.16;5017010;28;47851;-75
2022/03/24 01:25:29;;;;;;;;;49.50;37.25;;;;;14.25;31.19;102201.72;5036283;28;45434;-74
2022/03/24 01:27:54;;;;;;;;;48.75;36.00;;;;;14.10;30.55;102183.28;5035768;28;45336;-76
2022/03/24 01:30:20;;;;;;;;;44.25;36.50;;;;;14.35;30.92;102231.69;5018175;28;45472;-75
2022/03/24 01:32:46;;;;;;;;;46.50;36.00;;;;;14.51;31.26;102260.00;5019447;28;46311;-75
2022/03/24 01:35:12;;;;;;;;;45.50;35.50;;;;;13.94;30.95;102157.63;5034659;28;45638;-73
2022/03/24 01:37:38;;;;;;;;;46.00;38.00;;;;;14.08;30.76;102180.53;5032894;28;45613;-73
2022/03/24 01:40:05;;;;;;;;;42.75;34.00;;;;;13.88;31.05;102152.06;5034580;28;45567;-74
2022/03/24 01:42:34;;;;;;;;;49.25;39.75;;;;;13.63;31.78;102116.28;5034629;28;47176;-74
2022/03/24 01:45:00;;;;;;;;;45.00;36.50;;;;;14.31;31.49;102256.63;5031369;28;45481;-75
2022/03/24 01:47:25;;;;;;;;;40.50;35.75;;;;;14.31;31.08;102247.66;5028006;28;45526;-75
2022/03/24 01:49:51;;;;;;;;;41.25;33.25;;;;;14.30;31.28;102275.38;5016843;28;45439;-74
2022/03/24 01:52:19;;;;;;;;;42.00;34.50;;;;;14.25;31.98;102245.63;5017139;28;45568;-75
2022/03/24 01:54:51;;;;;;;;;39.75;32.75;;;;;13.19;32.08;102080.63;5017517;28;45601;-75
2022/03/24 01:57:18;;;;;;;;;44.50;36.75;;;;;14.15;31.72;102241.69;5017234;28;45531;-75
2022/03/24 01:59:43;;;;;;;;;51.25;37.50;;;;;13.89;31.99;102192.44;5016771;28;45517;-75
2022/03/24 02:02:10;;;;;;;;;43.00;36.00;;;;;14.14;31.85;102247.06;5015531;28;45582;-75
2022/03/24 02:04:36;;;;;;;;;40.75;33.25;;;;;14.12;32.63;102251.44;5015512;28;45396;-76
2022/03/24 02:07:03;;;;;;;;;47.00;36.50;;;;;13.82;31.97;102195.72;5015502;28;45272;-76
2022/03/24 02:09:28;;;;;;;;;47.50;38.25;;;;;14.10;32.37;102248.69;5027429;28;45519;-75
2022/03/24 02:11:54;;;;;;;;;41.50;33.50;;;;;14.07;32.07;102236.91;5034315;28;46354;-75
2022/03/24 02:14:20;;;;;;;;;50.75;36.25;;;;;13.89;32.09;102200.50;5034735;28;45360;-75
2022/03/24 02:16:47;;;;;;;;;41.00;33.00;;;;;14.12;32.84;102247.00;5017185;28;45524;-75
2022/03/24 02:19:16;;;;;;;;;37.50;34.00;;;;;14.14;31.80;102244.38;5016055;28;45407;-74
2022/03/24 02:21:43;;;;;;;;;37.50;27.00;;;;;13.43;32.52;102137.94;5015417;28;45393;-75
2022/03/24 02:24:11;;;;;;;;;42.25;36.00;;;;;13.63;32.50;102148.50;5015465;28;45466;-75
2022/03/24 02:26:37;;;;;;;;;45.00;35.50;;;;;14.15;32.00;102247.06;5015901;28;45550;-74
2022/03/24 02:29:07;;;;;;;;;45.25;36.50;;;;;14.05;31.95;102233.28;5015223;28;45443;-75
2022/03/24 02:31:39;;;;;;;;;44.75;36.00;;;;;14.11;32.93;102241.56;5033511;28;45388;-74
2022/03/24 02:36:51;;;;;;;;;47.75;38.75;;;;;13.95;32.96;102229.34;5032403;28;45374;-75
2022/03/24 02:39:16;;;;;;;;;37.00;31.75;;;;;13.94;32.24;102239.19;5014946;28;45530;-74
2022/03/24 02:41:53;;;;;;;;;45.25;34.50;;;;;13.95;32.54;102234.72;5017830;28;45298;-76
2022/03/24 02:44:22;;;;;;;;;38.00;34.00;;;;;13.94;32.33;102236.50;5033816;28;45344;-75
2022/03/24 02:46:50;;;;;;;;;43.75;34.00;;;;;13.93;33.17;102247.19;5050633;28;45254;-75
2022/03/24 02:49:17;;;;;;;;;39.25;33.00;;;;;12.69;33.29;102034.97;5050693;28;44884;-76
2022/03/24 02:51:42;;;;;;;;;38.25;34.50;;;;;13.90;32.90;102244.38;5033751;28;46421;-76
2022/03/24 02:54:10;;;;;;;;;44.75;36.25;;;;;12.94;33.10;102071.66;5033913;28;45296;-75
2022/03/24 02:56:36;;;;;;;;;38.50;33.25;;;;;13.51;32.93;102173.09;5021707;28;45654;-75
2022/03/24 02:59:04;;;;;;;;;42.25;35.25;;;;;13.85;32.68;102265.69;5024655;28;45609;-74
2022/03/24 03:01:30;;;;;;;;;42.00;33.25;;;;;13.11;33.39;102100.91;5031024;28;46441;-74
2022/03/24 03:03:55;;;;;;;;;44.25;35.25;;;;;12.40;33.83;102001.66;5013651;28;45558;-74
2022/03/24 03:06:22;;;;;;;;;39.00;33.00;;;;;13.32;33.43;102154.47;5027852;28;45502;-74
2022/03/24 03:08:49;;;;;;;;;39.00;33.75;;;;;13.61;33.31;102204.84;5034629;28;45435;-74
2022/03/24 03:11:15;;;;;;;;;40.25;33.25;;;;;13.54;33.03;102191.13;5036657;28;45430;-75
2022/03/24 03:13:42;;;;;;;;;46.50;35.50;;;;;13.82;32.87;102236.03;5034910;28;45467;-75
2022/03/24 03:16:08;;;;;;;;;39.00;32.75;;;;;13.22;33.08;102134.44;5029352;28;45453;-76
2022/03/24 03:18:33;;;;;;;;;48.25;34.00;;;;;12.24;33.38;101967.97;5040691;28;45505;-75
2022/03/24 03:20:59;;;;;;;;;37.75;33.00;;;;;13.44;32.88;102185.38;5041751;28;45355;-74
2022/03/24 03:23:25;;;;;;;;;51.00;40.00;;;;;13.79;33.81;102233.22;5038031;28;45409;-74
2022/03/24 03:25:51;;;;;;;;;38.50;33.50;;;;;13.06;33.32;102120.41;5037485;28;45480;-73
2022/03/24 03:28:17;;;;;;;;;40.00;33.50;;;;;13.60;33.16;102211.06;5036370;28;46099;-75
2022/03/24 03:30:43;;;;;;;;;42.75;31.25;;;;;13.75;33.78;102244.72;5039550;28;45434;-75
2022/03/24 03:33:10;;;;;;;;;45.00;35.00;;;;;13.66;33.46;102229.19;5035152;28;45268;-73
2022/03/24 03:35:36;;;;;;;;;39.50;33.75;;;;;12.44;33.70;102030.38;5047375;28;45492;-73
2022/03/24 03:38:01;;;;;;;;;44.25;33.25;;;;;12.24;33.04;101990.34;5039779;28;45544;-74
2022/03/24 03:40:27;;;;;;;;;47.50;37.00;;;;;13.10;32.96;102137.56;5039798;28;45945;-75
2022/03/24 03:42:53;;;;;;;;;42.00;33.00;;;;;13.60;33.51;102248.66;5022977;28;45526;-74
2022/03/24 03:45:18;;;;;;;;;35.25;29.25;;;;;13.71;33.47;102241.03;5027075;28;45402;-74
2022/03/24 03:47:43;;;;;;;;;39.00;33.75;;;;;13.71;33.86;102238.34;5029992;28;45418;-74
2022/03/24 03:50:09;;;;;;;;;45.00;35.25;;;;;13.70;33.51;102233.81;5037158;28;46776;-75
2022/03/24 03:52:34;;;;;;;;;38.00;31.25;;;;;13.59;33.87;102219.97;5037670;28;44992;-75
2022/03/24 03:55:00;;;;;;;;;45.00;36.00;;;;;13.44;33.35;102217.59;5041476;28;45496;-75
2022/03/24 03:57:25;;;;;;;;;38.25;33.25;;;;;13.68;33.76;102238.22;5036207;28;45458;-76
2022/03/24 03:59:51;;;;;;;;;47.50;35.25;;;;;13.57;33.64;102221.69;5039300;28;46308;-75
2022/03/24 04:02:16;;;;;;;;;35.75;31.25;;;;;12.57;33.98;102040.72;5050884;28;45145;-75
2022/03/24 04:04:42;;;;;;;;;42.75;33.25;;;;;13.39;33.94;102188.78;5036835;28;45289;-75
2022/03/24 04:07:07;;;;;;;;;40.25;31.00;;;;;12.58;34.23;102050.63;5029176;28;45605;-75
2022/03/24 04:09:33;;;;;;;;;35.25;33.00;;;;;13.61;34.25;102236.13;5024780;28;45543;-75
2022/03/24 04:11:58;;;;;;;;;35.75;32.50;;;;;13.60;34.00;102237.91;5022782;28;45491;-74
2022/03/24 04:14:25;;;;;;;;;42.00;33.75;;;;;13.50;33.47;102225.00;5017662;28;45309;-74
2022/03/24 04:16:51;;;;;;;;;43.25;36.00;;;;;13.25;34.38;102180.16;5024140;28;45366;-75
2022/03/24 04:19:19;;;;;;;;;47.75;37.75;;;;;13.20;33.94;102176.38;5017245;28;45483;-74
2022/03/24 04:21:45;;;;;;;;;45.25;36.25;;;;;13.32;33.72;102211.78;5027356;28;45402;-75
2022/03/24 04:24:10;;;;;;;;;39.00;32.25;;;;;13.39;34.43;102215.63;5036274;28;45442;-76
2022/03/24 04:26:36;;;;;;;;;42.00;35.00;;;;;13.34;33.53;102212.75;5030898;28;45310;-73
2022/03/24 04:29:02;;;;;;;;;44.50;34.00;;;;;13.43;34.67;102239.97;5021333;28;45486;-75
2022/03/24 04:31:28;;;;;;;;;45.25;34.50;;;;;13.40;34.94;102236.25;5024831;28;45446;-74
2022/03/24 04:33:53;;;;;;;;;43.25;33.25;;;;;12.99;34.81;102174.69;5044427;28;45528;-75
2022/03/24 04:36:18;;;;;;;;;45.00;35.00;;;;;13.37;33.98;102233.44;5047463;28;45194;-73
2022/03/24 04:38:44;;;;;;;;;41.75;33.75;;;;;12.74;34.47;102129.91;5042886;28;45221;-74
2022/03/24 04:41:10;;;;;;;;;46.75;35.75;;;;;12.67;34.63;102118.03;5036206;28;45473;-75
2022/03/24 04:43:36;;;;;;;;;35.00;31.25;;;;;13.31;34.29;102238.53;5036107;28;45471;-74
2022/03/24 04:46:02;;;;;;;;;40.00;31.75;;;;;13.12;34.68;102202.03;5026839;28;45663;-74
2022/03/24 04:48:28;;;;;;;;;48.75;36.75;;;;;13.04;34.96;102190.97;5040650;28;46412;-74
2022/03/24 04:50:53;;;;;;;;;41.50;33.25;;;;;12.79;34.71;102159.59;5037240;28;45447;-74
2022/03/24 04:53:19;;;;;;;;;38.50;32.00;;;;;13.25;34.83;102233.84;5039143;28;45383;-74
2022/03/24 04:55:45;;;;;;;;;35.75;32.75;;;;;12.90;34.78;102168.94;5044679;28;45395;-75
2022/03/24 04:58:12;;;;;;;;;38.50;32.00;;;;;12.93;34.87;102184.28;5039533;28;45533;-74
2022/03/24 05:00:38;;;;;;;;;36.25;31.00;;;;;13.19;35.72;102234.50;5035693;28;45474;-74
2022/03/24 05:03:04;;;;;;;;;36.25;31.50;;;;;12.31;35.43;102077.25;5039099;28;45581;-75
2022/03/24 05:05:30;;;;;;;;;34.25;30.00;;;;;12.81;35.18;102157.88;5039366;28;45359;-74
2022/03/24 05:07:55;;;;;;;;;50.75;38.25;;;;;13.21;35.65;102226.50;5037331;28;45465;-75
2022/03/24 05:10:21;;;;;;;;;46.25;33.75;;;;;12.93;35.19;102177.13;5040392;28;45352;-73
2022/03/24 05:12:46;;;;;;;;;40.25;33.75;;;;;13.21;35.24;102234.56;5038255;28;45599;-75
2022/03/24 05:15:13;;;;;;;;;47.50;37.50;;;;;12.76;34.82;102163.06;5030543;28;45284;-74
2022/03/24 05:17:40;;;;;;;;;42.50;36.50;;;;;13.16;35.49;102226.31;5044725;28;45584;-73
2022/03/24 05:20:07;;;;;;;;;39.75;33.75;;;;;12.48;34.99;102123.50;5050984;28;45352;-73
2022/03/24 05:22:34;;;;;;;;;38.75;33.25;;;;;13.12;35.60;102232.44;5022255;28;45336;-74
2022/03/24 05:25:00;;;;;;;;;36.00;33.50;;;;;12.46;35.10;102130.56;5038162;28;45474;-73
2022/03/24 05:27:25;;;;;;;;;30.25;25.25;;;;;12.62;35.53;102159.81;5034033;28;45730;-74
2022/03/24 05:29:51;;;;;;;;;39.00;33.50;;;;;12.71;35.05;102178.94;5033582;28;45443;-73
2022/03/24 05:32:16;;;;;;;;;45.50;35.25;;;;;12.46;35.28;102136.81;5012321;28;45729;-73
2022/03/24 05:34:42;;;;;;;;;43.50;33.50;;;;;12.96;35.53;102232.69;5018896;28;45894;-75
2022/03/24 05:37:07;;;;;;;;;46.25;37.00;;;;;13.01;35.75;102242.72;5035394;28;46247;-74
2022/03/24 05:39:32;;;;;;;;;44.25;34.75;;;;;13.01;35.62;102239.16;5019183;28;45559;-75
2022/03/24 05:41:58;;;;;;;;;41.00;34.00;;;;;13.02;35.43;102243.66;5040331;28;45533;-74
2022/03/24 05:44:24;;;;;;;;;49.25;37.00;;;;;12.76;35.79;102203.28;5024395;28;45566;-75
2022/03/24 05:46:49;;;;;;;;;37.50;31.25;;;;;12.87;35.51;102203.72;5022668;28;46413;-75
2022/03/24 05:49:18;;;;;;;;;35.00;27.50;;;;;13.01;35.41;102234.69;5026901;28;45570;-74
2022/03/24 05:51:45;;;;;;;;;47.50;34.00;;;;;13.01;34.85;102239.16;5041880;28;45263;-73
2022/03/24 05:54:12;;;;;;;;;37.00;32.75;;;;;12.84;35.89;102215.22;5034566;28;45503;-73
2022/03/24 05:56:37;;;;;;;;;36.75;30.25;;;;;12.64;36.93;102192.97;5028693;28;45486;-74
2022/03/24 05:59:03;;;;;;;;;47.50;35.00;;;;;11.56;36.29;102025.00;5024368;28;45436;-74
2022/03/24 06:01:29;;;;;;;;;44.25;33.25;;;;;12.90;37.22;102263.78;5020098;28;45465;-74
2022/03/24 06:03:55;;;;;;;;;35.50;22.50;;;;;12.90;38.05;102252.09;5001637;28;45654;-75
2022/03/24 06:06:22;;;;;;;;;39.25;30.75;;;;;12.91;37.62;102257.53;5015408;28;45498;-74
2022/03/24 06:08:51;;;;;;;;;64.00;50.50;;;;;12.95;37.61;102253.25;5015132;28;45487;-73
2022/03/24 06:11:17;;;;;;;;;41.50;34.25;;;;;12.68;36.95;102211.00;5014938;28;45480;-74
2022/03/24 06:13:43;;;;;;;;;36.25;33.25;;;;;12.95;37.51;102249.63;5015629;28;45580;-74
2022/03/24 06:16:09;;;;;;;;;46.50;35.00;;;;;12.90;36.48;102252.09;5014858;28;45969;-74
2022/03/24 06:18:36;;;;;;;;;45.25;35.75;;;;;12.82;37.71;102233.03;5015098;28;45301;-75
2022/03/24 06:21:02;;;;;;;;;41.25;31.75;;;;;12.92;37.52;102250.44;4985227;28;45380;-74
2022/03/24 06:23:28;;;;;;;;;46.25;36.50;;;;;12.93;37.18;102256.69;5028514;28;45452;-75
2022/03/24 06:25:53;;;;;;;;;46.00;37.25;;;;;12.95;37.40;102250.56;5033688;28;46249;-75
2022/03/24 06:28:19;;;;;;;;;43.50;35.25;;;;;12.80;37.18;102241.84;5027770;28;44969;-75
2022/03/24 06:30:44;;;;;;;;;47.75;37.25;;;;;12.40;36.83;102162.47;5047146;28;45023;-74
2022/03/24 06:33:10;;;;;;;;;50.50;38.25;;;;;12.93;37.59;102276.38;5041481;28;45334;-74
2022/03/24 06:35:37;;;;;;;;;46.00;38.50;;;;;12.77;38.47;102245.34;5030862;28;45825;-75
2022/03/24 06:38:02;;;;;;;;;45.00;35.75;;;;;12.59;38.19;102199.91;5032113;28;45375;-74
2022/03/24 06:40:28;;;;;;;;;42.50;34.75;;;;;12.95;37.65;102252.31;5050967;28;45011;-74
2022/03/24 06:42:54;;;;;;;;;42.25;32.75;;;;;12.95;37.54;102271.06;5030720;28;45247;-74
2022/03/24 06:45:20;;;;;;;;;50.75;41.00;;;;;12.52;37.67;102195.13;5032187;28;45690;-75
2022/03/24 06:47:45;;;;;;;;;50.00;38.75;;;;;12.79;37.51;102227.53;5032306;28;45234;-74
2022/03/24 06:50:12;;;;;;;;;51.00;36.00;;;;;12.64;37.28;102211.75;5043176;28;45056;-72
2022/03/24 06:52:41;;;;;;;;;50.25;38.00;;;;;12.80;37.65;102239.19;5051007;28;45210;-73
2022/03/24 06:55:08;;;;;;;;;47.75;38.75;;;;;12.61;37.44;102194.63;5050816;28;45562;-73
2022/03/24 06:57:34;;;;;;;;;56.75;42.50;;;;;12.84;37.42;102258.16;5033378;28;45152;-74
2022/03/24 07:00:00;;;;;;;;;47.00;33.00;;;;;13.02;38.34;102266.03;5030820;28;44978;-75
2022/03/24 07:02:25;;;;;;;;;44.75;37.25;;;;;12.21;37.39;102121.50;5013580;28;45373;-73
2022/03/24 07:04:51;;;;;;;;;50.25;40.75;;;;;12.45;37.84;102175.19;5044538;28;48601;-75
2022/03/24 07:07:16;;;;;;;;;51.25;34.25;;;;;13.05;37.45;102267.91;5030146;28;45778;-75
2022/03/24 07:09:42;;;;;;;;;47.50;38.00;;;;;12.93;37.42;102252.22;5026427;28;45345;-75
2022/03/24 07:12:07;;;;;;;;;44.75;37.50;;;;;13.03;37.15;102269.63;5026612;28;45576;-75
2022/03/24 07:14:33;;;;;;;;;51.25;39.50;;;;;12.40;37.21;102181.22;5033080;28;46380;-75
2022/03/24 07:16:58;;;;;;;;;47.00;37.75;;;;;13.03;37.34;102275.00;5033241;28;45434;-75
2022/03/24 07:19:24;;;;;;;;;49.75;40.00;;;;;12.97;37.61;102255.94;5030455;28;45396;-76
2022/03/24 07:21:49;;;;;;;;;51.50;37.00;;;;;12.42;37.42;102176.84;5017428;28;45333;-74
2022/03/24 07:24:15;;;;;;;;;59.00;46.25;;;;;13.02;36.96;102258.00;5043289;28;45876;-74
2022/03/24 07:26:42;;;;;;;;;54.25;39.00;;;;;12.83;37.25;102234.84;5039433;28;45449;-74
2022/03/24 07:29:10;;;;;;;;;54.75;37.25;;;;;13.16;37.11;102279.09;5023177;28;45469;-76
2022/03/24 07:31:36;;;;;;;;;48.00;38.50;;;;;12.43;37.36;102139.38;5014202;28;45493;-75
2022/03/24 07:34:02;;;;;;;;;50.50;40.25;;;;;12.93;37.38;102219.13;5013421;28;46378;-75
2022/03/24 07:36:28;;;;;;;;;44.25;36.50;;;;;13.08;37.86;102255.56;5013330;28;45351;-76
2022/03/24 07:38:55;;;;;;;;;45.00;37.50;;;;;12.93;37.59;102213.78;5015202;28;45420;-75
2022/03/24 07:41:21;;;;;;;;;53.75;40.75;;;;;13.13;36.26;102246.75;5033177;28;45617;-74
2022/03/24 07:43:47;;;;;;;;;47.25;36.75;;;;;13.31;37.11;102281.47;5032954;28;46194;-74
2022/03/24 07:46:13;;;;;;;;;41.50;35.00;;;;;13.36;37.53;102277.25;5032807;28;45484;-76
2022/03/24 07:48:38;;;;;;;;;53.50;38.00;;;;;12.93;36.67;102195.00;5027634;28;45433;-75
2022/03/24 07:51:05;;;;;;;;;43.00;35.50;;;;;13.49;37.05;102281.31;5030132;28;45294;-75
2022/03/24 07:53:48;;;;;;;;;50.50;38.25;;;;;13.56;37.02;102281.63;5035047;28;45726;-76
2022/03/24 07:56:19;;;;;;;;;45.50;35.50;;;;;12.72;36.33;102131.63;5035598;28;45177;-76
2022/03/24 07:58:44;;;;;;;;;51.50;41.25;;;;;13.19;36.25;102196.03;5024127;28;45612;-77
2022/03/24 08:01:13;;;;;;;;;49.75;39.50;;;;;13.73;35.62;102290.34;5026407;28;45593;-76
2022/03/24 08:03:40;;;;;;;;;54.00;42.50;;;;;13.55;36.12;102266.38;5018138;28;46030;-77
2022/03/24 08:06:06;;;;;;;;;50.00;39.00;;;;;13.40;36.45;102214.78;5027468;28;45644;-77
2022/03/24 08:08:31;;;;;;;;;50.00;39.00;;;;;13.63;36.12;102238.03;5018889;28;45530;-76
2022/03/24 08:10:58;;;;;;;;;49.00;39.00;;;;;13.41;35.63;102204.09;5024699;28;45578;-76
2022/03/24 08:13:25;;;;;;;;;50.50;39.00;;;;;13.34;36.58;102198.41;5013470;28;45783;-77
2022/03/24 08:15:51;;;;;;;;;57.00;45.50;;;;;14.04;35.16;102275.38;5031561;28;45568;-78
2022/03/24 08:18:18;;;;;;;;;55.25;42.75;;;;;12.88;35.46;102072.31;5037626;28;45315;-76
2022/03/24 08:20:47;;;;;;;;;54.75;42.25;;;;;13.43;35.31;102166.56;5034887;28;45191;-76
2022/03/24 08:23:13;;;;;;;;;53.75;41.25;;;;;12.99;35.61;102080.78;5040519;28;46443;-76
2022/03/24 08:25:40;;;;;;;;;50.75;39.50;;;;;14.38;35.34;102298.06;5035901;28;45489;-75
2022/03/24 08:28:06;;;;;;;;;51.00;39.75;;;;;14.44;35.16;102306.38;5035366;28;45357;-76
2022/03/24 08:30:32;;;;;;;;;50.75;37.75;;;;;13.33;35.07;102119.69;5035703;28;45474;-74
2022/03/24 08:32:57;;;;;;;;;53.00;37.50;;;;;13.34;34.83;102088.38;5035504;28;45511;-76
2022/03/24 08:35:23;;;;;;;;;53.50;43.50;;;;;13.39;34.28;102070.66;5035701;28;45345;-76
2022/03/24 08:37:48;;;;;;;;;49.00;37.25;;;;;14.15;34.10;102212.13;5036400;28;45480;-76
2022/03/24 08:40:13;;;;;;;;;44.75;35.50;;;;;13.61;34.12;102117.97;5036275;28;45507;-75
2022/03/24 08:42:41;;;;;;;;;43.25;33.50;;;;;13.77;34.27;102157.94;5033417;28;45789;-76
2022/03/24 08:45:09;;;;;;;;;53.25;40.00;;;;;14.83;33.79;102327.50;5022179;28;45467;-77
2022/03/24 08:47:35;;;;;;;;;51.50;39.75;;;;;14.09;33.45;102162.63;5038841;28;45361;-76
2022/03/24 08:50:02;;;;;;;;;54.00;40.00;;;;;14.78;33.47;102279.75;5037348;28;45333;-76
2022/03/24 08:52:27;;;;;;;;;48.00;38.25;;;;;14.97;33.84;102302.81;5036161;28;46187;-76
2022/03/24 08:54:54;;;;;;;;;50.00;40.50;;;;;14.90;33.48;102273.00;5036514;28;45730;-76
2022/03/24 08:57:26;;;;;;;;;55.25;44.25;;;;;14.50;33.92;102182.88;5036511;28;45459;-76
2022/03/24 08:59:54;;;;;;;;;42.75;36.00;;;;;14.85;32.43;102245.03;5036910;28;45444;-76
2022/03/24 09:02:20;;;;;;;;;53.00;40.75;;;;;14.77;33.08;102190.06;5036316;28;46086;-75
2022/03/24 09:04:47;;;;;;;;;35.00;30.00;;;;;15.23;32.39;102261.50;5032507;28;45598;-75
2022/03/24 09:07:13;;;;;;;;;56.50;43.75;;;;;14.80;32.45;102170.38;5016241;28;45409;-74
2022/03/24 09:09:40;;;;;;;;;55.75;40.50;;;;;15.58;33.08;102310.16;5016505;28;45574;-75
2022/03/24 09:12:06;;;;;;;;;52.25;40.75;;;;;15.68;32.30;102294.28;5015989;28;46018;-76
2022/03/24 09:14:32;;;;;;;;;51.75;40.25;;;;;14.48;31.96;102060.88;5016589;28;45664;-74
2022/03/24 09:16:57;;;;;;;;;41.50;34.75;;;;;15.82;31.85;102279.44;5016065;28;45534;-75
2022/03/24 09:19:22;;;;;;;;;52.25;40.75;;;;;16.12;32.00;102306.41;5016236;28;45616;-75
2022/03/24 09:21:48;;;;;;;;;48.50;39.75;;;;;15.21;31.58;102109.78;5011215;28;47914;-74
2022/03/24 09:24:13;;;;;;;;;49.25;39.25;;;;;15.33;31.41;102111.91;5014435;28;45473;-75
2022/03/24 09:26:39;;;;;;;;;50.25;40.50;;;;;15.48;31.24;102082.69;5016096;28;45439;-76
2022/03/24 09:29:05;;;;;;;;;52.25;38.75;;;;;16.79;30.74;102287.50;5016028;28;45387;-76
2022/03/24 09:31:30;;;;;;;;;45.25;37.25;;;;;16.91;30.26;102287.84;5027950;28;45476;-76
2022/03/24 09:33:56;;;;;;;;;43.50;35.00;;;;;17.04;30.49;102301.66;5034833;28;45656;-76
2022/03/24 09:36:22;;;;;;;;;55.25;39.50;;;;;15.89;30.12;102078.41;5034724;28;45473;-77
2022/03/24 09:38:47;;;;;;;;;55.25;42.75;;;;;16.08;30.07;102131.91;5035064;28;45411;-75
2022/03/24 09:41:14;;;;;;;;;55.50;43.25;;;;;15.99;30.44;102067.00;5034803;28;45779;-76
2022/03/24 09:43:41;;;;;;;;;61.25;43.25;;;;;16.79;30.18;102192.13;5034616;28;45304;-76
2022/03/24 09:46:07;;;;;;;;;49.00;39.00;;;;;17.45;30.02;102299.00;5034586;28;45385;-74
2022/03/24 09:48:32;;;;;;;;;47.50;40.25;;;;;15.61;30.35;101960.03;5034714;28;45610;-75
2022/03/24 09:50:58;;;;;;;;;56.00;42.25;;;;;17.63;29.42;102304.81;5034152;28;45533;-75
2022/03/24 09:53:24;;;;;;;;;56.25;44.75;;;;;16.77;29.58;102155.19;5034445;28;45630;-75
2022/03/24 09:55:49;;;;;;;;;54.25;42.00;;;;;17.39;28.92;102224.16;5034140;28;45519;-76
2022/03/24 09:58:15;;;;;;;;;70.50;53.50;;;;;16.74;29.58;102103.84;5034225;28;45458;-75
2022/03/24 10:00:41;;;;;;;;;61.00;46.75;;;;;16.68;29.40;102094.69;5034025;28;46627;-74
2022/03/24 10:03:14;;;;;;;;;55.00;41.50;;;;;18.04;29.14;102285.91;5033941;28;45476;-76
2022/03/24 10:05:56;;;;;;;;;62.50;46.75;;;;;17.13;29.42;102116.44;5034283;28;45550;-76
2022/03/24 10:08:22;;;;;;;;;61.25;43.50;;;;;17.66;28.95;102198.59;5034363;28;45566;-75
2022/03/24 10:10:47;;;;;;;;;56.50;44.75;;;;;17.40;29.17;102133.19;5016244;28;46691;-76
2022/03/24 10:13:16;;;;;;;;;52.00;37.75;;;;;18.31;28.99;102286.41;5034276;28;45621;-75
2022/03/24 10:15:42;;;;;;;;;61.25;46.50;;;;;17.21;28.96;102094.06;5034581;28;45630;-76
2022/03/24 10:18:15;;;;;;;;;55.00;43.25;;;;;17.56;28.41;102123.63;5034233;28;45458;-74
2022/03/24 10:20:41;;;;;;;;;47.00;39.75;;;;;17.45;28.58;102091.88;5033900;28;45482;-76
2022/03/24 10:23:06;;;;;;;;;50.75;38.75;;;;;18.15;28.40;102186.06;5033696;28;45505;-74
2022/03/24 10:25:37;;;;;;;;;54.25;41.75;;;;;18.07;28.56;102140.81;5034362;28;45536;-75
2022/03/24 10:28:04;;;;;;;;;48.25;40.75;;;;;18.93;28.16;102272.22;5033080;28;45429;-76
2022/03/24 10:30:48;;;;;;;;;48.75;40.50;;;;;18.22;27.78;102135.66;5033710;28;45548;-76
2022/03/24 10:33:33;;;;;;;;;56.00;43.50;;;;;19.12;27.82;102271.63;5033721;28;45568;-76
2022/03/24 10:36:09;;;;;;;;;51.00;40.75;;;;;19.20;27.61;102273.53;5033874;28;45510;-77
2022/03/24 10:38:39;;;;;;;;;45.00;36.00;;;;;19.01;27.42;102223.59;5035010;28;45667;-74
2022/03/24 10:41:27;;;;;;;;;51.00;41.00;;;;;19.29;27.12;102265.56;5034296;28;46347;-75
2022/03/24 10:43:55;;;;;;;;;46.00;35.50;;;;;17.93;27.79;102024.28;5033891;28;45716;-76
2022/03/24 10:46:43;;;;;;;;;53.75;39.75;;;;;18.90;27.49;102218.00;5028730;28;45473;-77
2022/03/24 10:49:23;;;;;;;;;66.25;49.75;;;;;19.22;27.63;102237.47;5018508;28;45429;-77
2022/03/24 10:51:51;;;;;;;;;52.50;39.50;;;;;19.48;27.65;102264.91;5036217;28;46202;-76
2022/03/24 10:54:46;;;;;;;;;65.50;47.50;;;;;19.57;27.13;102266.84;5039209;28;45451;-78
2022/03/24 10:57:20;;;;;;;;;50.25;38.75;;;;;19.55;27.11;102248.72;5022000;28;45384;-77
2022/03/24 10:59:47;;;;;;;;;40.50;34.00;;;;;18.17;26.86;101999.44;5037414;28;45546;-75
2022/03/24 11:02:14;;;;;;;;;53.25;39.00;;;;;18.92;26.62;102138.63;5036353;28;47304;-77
2022/03/24 11:04:40;;;;;;;;;44.50;35.75;;;;;19.81;26.68;102260.84;5036035;28;45522;-75
2022/03/24 11:07:06;;;;;;;;;49.50;36.00;;;;;18.77;26.22;102087.78;5035783;28;45175;-76
2022/03/24 11:09:33;;;;;;;;;43.75;36.75;;;;;19.89;26.18;102258.22;5033457;28;45661;-76
2022/03/24 11:12:23;;;;;;;;;52.00;39.00;;;;;19.78;26.51;102227.34;5033226;28;45490;-78